createdAt,value
2023-01-10T00:00:59.549Z,52633.56
2023-01-10T00:03:31.411Z,52630.75
2023-01-10T00:06:02.898Z,52640.39
2023-01-10T00:08:34.970Z,52621.91
2023-01-10T00:11:27.092Z,52621.91
2023-01-10T00:13:58.638Z,52628.74
2023-01-10T00:16:30.147Z,52618.29
2023-01-10T00:19:01.560Z,52629.54
2023-01-10T00:21:32.986Z,52645.62
2023-01-10T00:24:16.980Z,52625.93
2023-01-10T00:26:51.384Z,52631.96
2023-01-10T00:29:24.214Z,52627.13
2023-01-10T00:31:56.690Z,52611.05
2023-01-10T00:34:28.966Z,52630.75
2023-01-10T00:37:01.028Z,52614.27
2023-01-10T00:39:33.018Z,52633.56
2023-01-10T00:42:22.460Z,52626.32
2023-01-10T00:44:54.732Z,52618.70
2023-01-10T00:47:26.838Z,52618.70
2023-01-10T00:49:58.889Z,52619.90
2023-01-10T00:52:30.254Z,52635.98
2023-01-10T00:55:02.320Z,52626.33
2023-01-10T00:57:34.202Z,52622.31
2023-01-10T01:00:09.383Z,52625.13
2023-01-10T01:02:41.341Z,52613.07
2023-01-10T01:05:13.706Z,52626.33
2023-01-10T01:07:45.522Z,52622.71
2023-01-10T01:10:29.701Z,52628.34
2023-01-10T01:13:01.981Z,52611.86
2023-01-10T01:15:35.350Z,52614.68
2023-01-10T01:18:07.447Z,52628.74
2023-01-10T01:20:39.940Z,52625.13
2023-01-10T01:23:11.614Z,52613.87
2023-01-10T01:25:43.482Z,52608.24
2023-01-10T01:28:15.202Z,52615.08
2023-01-10T01:30:47.196Z,52609.45
2023-01-10T01:33:19.438Z,52626.73
2023-01-10T01:35:51.373Z,52615.48
2023-01-10T01:38:23.037Z,52611.46
2023-01-10T01:40:54.798Z,52618.69
2023-01-10T01:43:27.486Z,52619.09
2023-01-10T01:45:59.409Z,52615.07
2023-01-10T01:48:38.994Z,52632.36
2023-01-10T01:51:12.125Z,52615.48
2023-01-10T01:53:46.485Z,52617.09
2023-01-10T01:56:19.145Z,52625.93
2023-01-10T01:58:51.801Z,52616.28
2023-01-10T02:01:23.457Z,52603.82
2023-01-10T02:03:57.457Z,52616.28
2023-01-10T02:06:29.282Z,52641.20
2023-01-10T02:09:04.772Z,52608.64
2023-01-10T02:11:36.698Z,52611.46
2023-01-10T02:14:09.031Z,52631.96
2023-01-10T02:16:40.651Z,52624.73
2023-01-10T02:19:19.046Z,52607.04
2023-01-10T02:22:12.674Z,52617.89
2023-01-10T02:25:13.611Z,52618.29
2023-01-10T02:27:53.132Z,52631.55
2023-01-10T02:30:48.988Z,52604.23
2023-01-10T02:33:23.060Z,52607.04
2023-01-10T02:36:18.408Z,52620.71
2023-01-10T02:38:59.365Z,52621.51
2023-01-10T02:41:32.830Z,52617.49
2023-01-10T02:44:06.523Z,52596.59
2023-01-10T02:46:38.820Z,52613.47
2023-01-10T02:49:10.708Z,52610.65
2023-01-10T02:51:42.467Z,52600.61
2023-01-10T02:54:15.305Z,52613.06
2023-01-10T02:57:19.565Z,52631.55
2023-01-10T03:00:08.937Z,52608.65
2023-01-10T03:02:58.506Z,52619.09
2023-01-10T03:05:36.919Z,52599.00
2023-01-10T03:08:12.333Z,52631.96
2023-01-10T03:10:46.274Z,52612.66
2023-01-10T03:13:20.719Z,52618.70
2023-01-10T03:15:52.428Z,52619.50
2023-01-10T03:18:25.542Z,52633.16
2023-01-10T03:20:57.384Z,52621.11
2023-01-10T03:23:28.923Z,52608.64
2023-01-10T03:26:00.475Z,52628.74
2023-01-10T03:28:33.622Z,52624.72
2023-01-10T03:31:07.187Z,52636.38
2023-01-10T03:33:38.636Z,52619.50
2023-01-10T03:36:17.159Z,52599.80
2023-01-10T03:38:50.423Z,52625.93
2023-01-10T03:41:27.745Z,52623.11
2023-01-10T03:44:20.074Z,52617.89
2023-01-10T03:46:53.338Z,52616.28
2023-01-10T03:49:25.405Z,52624.72
2023-01-10T03:51:57.193Z,52621.91
2023-01-10T03:54:29.005Z,52607.84
2023-01-10T03:57:02.667Z,52634.77
2023-01-10T03:59:34.418Z,52622.31
2023-01-10T04:02:06.701Z,52622.71
2023-01-10T04:04:38.505Z,52624.32
2023-01-10T04:07:10.379Z,52632.76
2023-01-10T04:09:42.069Z,52619.50
2023-01-10T04:12:13.940Z,52620.30
2023-01-10T04:14:47.211Z,52634.77
2023-01-10T04:17:19.339Z,52627.13
2023-01-10T04:19:51.037Z,52634.37
2023-01-10T04:22:22.534Z,52640.80
2023-01-10T04:24:54.775Z,52616.28
2023-01-10T04:27:26.250Z,52636.78
2023-01-10T04:29:57.659Z,52636.38
2023-01-10T04:32:29.437Z,52623.52
2023-01-10T04:35:01.222Z,52624.32
2023-01-10T04:37:33.112Z,52613.07
2023-01-10T04:40:04.627Z,52632.36
2023-01-10T04:42:36.346Z,52637.99
2023-01-10T04:45:12.032Z,52628.34
2023-01-10T04:47:43.756Z,52625.52
2023-01-10T04:50:15.647Z,52624.73
2023-01-10T04:52:47.870Z,52630.75
2023-01-10T04:55:20.050Z,52609.45
2023-01-10T04:57:51.908Z,52621.51
2023-01-10T05:00:24.076Z,52619.90
2023-01-10T05:03:00.156Z,52630.75
2023-01-10T05:05:32.167Z,52621.11
2023-01-10T05:08:04.317Z,52631.96
2023-01-10T05:10:35.909Z,52608.24
2023-01-10T05:13:07.531Z,52625.52
2023-01-10T05:15:39.158Z,52621.51
2023-01-10T05:18:10.866Z,52629.14
2023-01-10T05:20:42.382Z,52614.27
2023-01-10T05:23:14.380Z,52614.27
2023-01-10T05:25:46.139Z,52599.00
2023-01-10T05:28:17.629Z,52631.55
2023-01-10T05:30:49.032Z,52623.12
2023-01-10T05:33:19.000Z,52631.55
2023-01-10T05:35:50.445Z,52605.43
2023-01-10T05:38:22.098Z,52615.07
2023-01-10T05:40:59.007Z,52623.52
2023-01-10T05:43:30.738Z,52633.56
2023-01-10T05:46:02.531Z,52631.55
2023-01-10T05:48:34.408Z,52630.75
2023-01-10T05:51:06.771Z,52627.13
2023-01-10T05:53:38.294Z,52617.49
2023-01-10T05:56:10.762Z,52623.11
2023-01-10T05:58:42.489Z,52617.09
2023-01-10T06:01:13.977Z,52612.26
2023-01-10T06:03:45.462Z,52616.69
2023-01-10T06:06:16.951Z,52611.05
2023-01-10T06:08:48.573Z,52613.88
2023-01-10T06:11:20.731Z,52614.68
2023-01-10T06:13:56.175Z,52602.61
2023-01-10T06:16:27.803Z,52621.11
2023-01-10T06:18:59.405Z,52618.29
2023-01-10T06:21:31.928Z,52601.81
2023-01-10T06:24:03.590Z,52602.22
2023-01-10T06:26:35.963Z,52613.88
2023-01-10T06:29:07.638Z,52592.17
2023-01-10T06:31:39.298Z,52600.21
2023-01-10T06:34:10.857Z,52593.77
2023-01-10T06:36:42.408Z,52601.41
2023-01-10T06:39:14.216Z,52601.81
2023-01-10T06:41:45.853Z,52599.00
2023-01-10T06:44:17.484Z,52597.79
2023-01-10T06:46:48.946Z,52605.43
2023-01-10T06:49:21.031Z,52595.38
2023-01-10T06:51:52.919Z,52586.14
2023-01-10T06:54:25.257Z,52586.95
2023-01-10T06:56:56.921Z,52591.77
2023-01-10T06:59:28.690Z,52592.98
2023-01-10T07:02:00.653Z,52592.57
2023-01-10T07:04:32.249Z,52597.79
2023-01-10T07:07:04.091Z,52589.36
2023-01-10T07:09:35.582Z,52581.31
2023-01-10T07:12:05.507Z,52579.71
2023-01-10T07:14:37.001Z,52570.06
2023-01-10T07:17:08.722Z,52590.16
2023-01-10T07:19:40.171Z,52577.70
2023-01-10T07:22:12.313Z,52569.66
2023-01-10T07:24:43.869Z,52557.61
2023-01-10T07:27:15.429Z,52563.64
2023-01-10T07:29:45.200Z,52568.86
2023-01-10T07:32:17.396Z,52573.68
2023-01-10T07:34:49.064Z,52554.79
2023-01-10T07:37:20.513Z,52555.20
2023-01-10T07:39:52.598Z,52562.43
2023-01-10T07:42:25.700Z,52574.89
2023-01-10T07:44:57.479Z,52554.39
2023-01-10T07:47:29.593Z,52556.80
2023-01-10T07:50:01.236Z,52564.04
2023-01-10T07:52:30.999Z,52557.21
2023-01-10T07:55:02.817Z,52558.01
2023-01-10T07:57:34.713Z,52548.76
2023-01-10T08:00:08.289Z,52540.32
2023-01-10T08:02:40.000Z,52543.54
2023-01-10T08:05:13.711Z,52546.35
2023-01-10T08:07:48.613Z,52545.14
2023-01-10T08:10:20.315Z,52557.21
2023-01-10T08:12:52.726Z,52547.96
2023-01-10T08:15:24.344Z,52552.38
2023-01-10T08:17:57.116Z,52540.32
2023-01-10T08:20:30.980Z,52545.14
2023-01-10T08:23:02.802Z,52552.78
2023-01-10T08:25:34.459Z,52545.15
2023-01-10T08:28:06.409Z,52533.09
2023-01-10T08:30:38.825Z,52536.30
2023-01-10T08:33:10.496Z,52545.55
2023-01-10T08:35:42.415Z,52547.55
2023-01-10T08:38:13.900Z,52531.48
2023-01-10T08:40:43.898Z,52535.91
2023-01-10T08:43:16.556Z,52545.14
2023-01-10T08:45:48.148Z,52544.75
2023-01-10T08:48:20.036Z,52523.85
2023-01-10T08:50:51.443Z,52532.69
2023-01-10T08:53:21.469Z,52536.71
2023-01-10T08:55:53.340Z,52537.51
2023-01-10T08:58:25.547Z,52523.04
2023-01-10T09:00:57.351Z,52521.84
2023-01-10T09:03:28.930Z,52526.26
2023-01-10T09:05:59.082Z,52523.84
2023-01-10T09:08:30.859Z,52510.59
2023-01-10T09:11:02.933Z,52513.80
2023-01-10T09:13:34.677Z,52515.01
2023-01-10T09:16:07.067Z,52498.52
2023-01-10T09:18:38.480Z,52519.02
2023-01-10T09:21:08.475Z,52513.80
2023-01-10T09:23:40.294Z,52505.76
2023-01-10T09:26:11.787Z,52500.94
2023-01-10T09:28:43.337Z,52506.56
2023-01-10T09:31:13.741Z,52488.88
2023-01-10T09:33:47.849Z,52502.14
2023-01-10T09:36:19.310Z,52481.65
2023-01-10T09:38:49.253Z,52475.22
2023-01-10T09:41:49.161Z,52469.59
2023-01-10T09:44:22.786Z,52481.65
2023-01-10T09:46:58.424Z,52475.62
2023-01-10T09:49:36.914Z,52469.59
2023-01-10T09:52:11.442Z,52479.24
2023-01-10T09:54:43.636Z,52491.70
2023-01-10T09:57:18.002Z,52464.37
2023-01-10T09:59:51.938Z,52476.43
2023-01-10T10:02:28.647Z,52465.18
2023-01-10T10:05:11.421Z,52460.75
2023-01-10T10:07:42.884Z,52476.02
2023-01-10T10:10:16.718Z,52472.00
2023-01-10T10:12:51.013Z,52475.62
2023-01-10T10:15:25.617Z,52458.34
2023-01-10T10:18:04.566Z,52461.55
2023-01-10T10:20:40.273Z,52469.59
2023-01-10T10:23:28.186Z,52476.82
2023-01-10T10:26:05.691Z,52484.46
2023-01-10T10:29:12.945Z,52466.38
2023-01-10T10:31:52.276Z,52457.54
2023-01-10T10:34:27.070Z,52457.54
2023-01-10T10:37:00.714Z,52463.97
2023-01-10T10:39:36.325Z,52476.82
2023-01-10T10:42:12.123Z,52465.17
2023-01-10T10:44:45.153Z,52457.13
2023-01-10T10:47:19.397Z,52459.54
2023-01-10T10:49:54.247Z,52457.53
2023-01-10T10:52:27.447Z,52451.11
2023-01-10T10:54:59.132Z,52461.16
2023-01-10T10:57:31.051Z,52431.01
2023-01-10T11:00:03.586Z,52447.89
2023-01-10T11:02:41.412Z,52444.68
2023-01-10T11:05:19.517Z,52441.46
2023-01-10T11:07:51.863Z,52449.90
2023-01-10T11:10:37.274Z,52453.91
2023-01-10T11:13:23.452Z,52438.64
2023-01-10T11:15:56.273Z,52446.68
2023-01-10T11:18:28.994Z,52429.80
2023-01-10T11:21:02.355Z,52423.78
2023-01-10T11:23:50.931Z,52431.41
2023-01-10T11:26:29.814Z,52429.00
2023-01-10T11:29:09.787Z,52410.52
2023-01-10T11:31:41.548Z,52423.37
2023-01-10T11:34:23.258Z,52415.34
2023-01-10T11:37:03.059Z,52386.80
2023-01-10T11:39:34.824Z,52402.48
2023-01-10T11:42:26.228Z,52402.08
2023-01-10T11:44:57.936Z,52393.24
2023-01-10T11:47:29.963Z,52407.70
2023-01-10T11:50:02.670Z,52388.41
2023-01-10T11:52:34.466Z,52390.42
2023-01-10T11:55:08.651Z,52379.57
2023-01-10T11:57:40.412Z,52389.62
2023-01-10T12:00:14.115Z,52374.75
2023-01-10T12:02:46.031Z,52375.55
2023-01-10T12:05:22.520Z,52371.94
2023-01-10T12:08:01.801Z,52360.28
2023-01-10T12:10:33.259Z,52358.27
2023-01-10T12:13:16.936Z,52364.30
2023-01-10T12:15:49.658Z,52365.91
2023-01-10T12:18:21.743Z,52383.19
2023-01-10T12:20:55.392Z,52357.87
2023-01-10T12:23:27.432Z,52364.70
2023-01-10T12:26:11.118Z,52366.71
2023-01-10T12:28:45.768Z,52361.09
2023-01-10T12:31:18.899Z,52368.72
2023-01-10T12:33:52.487Z,52370.33
2023-01-10T12:36:30.250Z,52361.09
2023-01-10T12:39:08.521Z,52355.05
2023-01-10T12:42:08.547Z,52363.89
2023-01-10T12:44:41.807Z,52347.02
2023-01-10T12:47:21.303Z,52365.50
2023-01-10T12:49:54.911Z,52358.27
2023-01-10T12:52:32.879Z,52364.70
2023-01-10T12:55:04.721Z,52346.21
2023-01-10T12:57:39.558Z,52367.91
2023-01-10T13:00:20.482Z,52355.05
2023-01-10T13:02:54.129Z,52363.50
2023-01-10T13:05:26.848Z,52357.46
2023-01-10T13:08:01.519Z,52362.70
2023-01-10T13:10:34.756Z,52361.08
2023-01-10T13:13:07.891Z,52375.15
2023-01-10T13:15:41.011Z,52368.32
2023-01-10T13:18:20.146Z,52394.04
2023-01-10T13:20:51.924Z,52397.25
2023-01-10T13:23:30.486Z,52407.70
2023-01-10T13:26:05.287Z,52400.47
2023-01-10T13:28:39.456Z,52396.85
2023-01-10T13:31:23.659Z,52406.49
2023-01-10T13:33:56.810Z,52414.13
2023-01-10T13:36:29.277Z,52398.05
2023-01-10T13:39:03.358Z,52415.74
2023-01-10T13:42:21.596Z,52427.39
2023-01-10T13:45:27.622Z,52417.75
2023-01-10T13:48:06.451Z,52418.95
2023-01-10T13:50:54.943Z,52431.81
2023-01-10T13:53:52.882Z,52449.10
2023-01-10T13:56:47.219Z,52464.77
2023-01-10T14:00:24.611Z,52457.13
2023-01-10T14:02:56.545Z,52472.01
2023-01-10T14:05:28.695Z,52482.05
2023-01-10T14:08:00.660Z,52485.67
2023-01-10T14:10:33.011Z,52490.49
2023-01-10T14:13:09.637Z,52496.93
2023-01-10T14:15:42.990Z,52510.59
2023-01-10T14:18:22.100Z,52502.95
2023-01-10T14:21:00.557Z,52507.77
2023-01-10T14:23:32.904Z,52511.79
2023-01-10T14:26:04.418Z,52519.02
2023-01-10T14:28:34.826Z,52512.59
2023-01-10T14:31:09.423Z,52517.82
2023-01-10T14:33:41.433Z,52521.84
2023-01-10T14:36:17.912Z,52508.57
2023-01-10T14:38:49.420Z,52527.06
2023-01-10T14:41:23.221Z,52525.46
2023-01-10T14:43:56.716Z,52525.05
2023-01-10T14:46:30.153Z,52530.27
2023-01-10T14:49:01.735Z,52547.96
2023-01-10T14:51:34.527Z,52528.67
2023-01-10T14:54:12.509Z,52524.25
2023-01-10T14:56:45.347Z,52540.32
2023-01-10T14:59:26.022Z,52523.85
2023-01-10T15:01:59.405Z,52542.74
2023-01-10T15:04:33.110Z,52545.55
2023-01-10T15:07:11.327Z,52541.13
2023-01-10T15:09:47.269Z,52562.83
2023-01-10T15:12:18.919Z,52539.12
2023-01-10T15:14:50.675Z,52553.59
2023-01-10T15:17:22.352Z,52537.11
2023-01-10T15:19:55.223Z,52550.77
2023-01-10T15:22:31.134Z,52550.38
2023-01-10T15:25:03.951Z,52549.97
2023-01-10T15:27:46.552Z,52544.34
2023-01-10T15:30:21.178Z,52552.78
2023-01-10T15:32:53.375Z,52553.59
2023-01-10T15:35:35.291Z,52560.82
2023-01-10T15:38:08.842Z,52552.78
2023-01-10T15:40:41.439Z,52547.16
2023-01-10T15:43:30.580Z,52551.18
2023-01-10T15:46:02.755Z,52551.98
2023-01-10T15:48:35.765Z,52547.16
2023-01-10T15:51:14.634Z,52571.27
2023-01-10T15:53:57.983Z,52558.41
2023-01-10T15:56:31.476Z,52560.42
2023-01-10T15:59:03.376Z,52545.95
2023-01-10T16:01:35.025Z,52584.13
2023-01-10T16:04:07.540Z,52582.93
2023-01-10T16:06:39.551Z,52562.83
2023-01-10T16:09:17.758Z,52577.70
2023-01-10T16:12:08.890Z,52581.72
2023-01-10T16:14:40.446Z,52580.91
2023-01-10T16:17:12.870Z,52579.30
2023-01-10T16:19:44.669Z,52573.68
2023-01-10T16:22:17.329Z,52576.09
2023-01-10T16:24:52.681Z,52587.75
2023-01-10T16:27:24.199Z,52586.95
2023-01-10T16:29:56.849Z,52584.13
2023-01-10T16:32:29.201Z,52580.51
2023-01-10T16:35:02.810Z,52573.28
2023-01-10T16:37:34.438Z,52601.41
2023-01-10T16:40:15.230Z,52582.52
2023-01-10T16:43:04.587Z,52577.71
2023-01-10T16:45:36.443Z,52601.01
2023-01-10T16:48:08.295Z,52579.30
2023-01-10T16:50:40.128Z,52611.46
2023-01-10T16:53:13.865Z,52586.95
2023-01-10T16:55:46.642Z,52612.67
2023-01-10T16:58:18.544Z,52594.58
2023-01-10T17:00:53.036Z,52604.23
2023-01-10T17:03:25.568Z,52617.49
2023-01-10T17:05:57.213Z,52628.34
2023-01-10T17:08:28.705Z,52604.23
2023-01-10T17:11:06.432Z,52611.06
2023-01-10T17:13:40.625Z,52619.90
2023-01-10T17:16:12.198Z,52612.26
2023-01-10T17:18:43.821Z,52601.81
2023-01-10T17:21:17.629Z,52615.07
2023-01-10T17:23:49.054Z,52611.05
2023-01-10T17:26:21.230Z,52615.48
2023-01-10T17:28:52.832Z,52617.09
2023-01-10T17:31:24.381Z,52592.57
2023-01-10T17:33:56.483Z,52609.05
2023-01-10T17:36:30.283Z,52625.93
2023-01-10T17:39:01.757Z,52605.02
2023-01-10T17:41:33.636Z,52628.74
2023-01-10T17:44:05.240Z,52630.35
2023-01-10T17:46:37.458Z,52613.07
2023-01-10T17:49:09.277Z,52624.32
2023-01-10T17:51:41.346Z,52619.09
2023-01-10T17:54:14.669Z,52630.75
2023-01-10T17:56:46.327Z,52624.73
2023-01-10T17:59:17.741Z,52623.52
2023-01-10T18:01:49.576Z,52622.71
2023-01-10T18:04:21.170Z,52633.16
2023-01-10T18:06:53.115Z,52636.38
2023-01-10T18:09:24.908Z,52642.01
2023-01-10T18:11:56.394Z,52635.17
2023-01-10T18:14:40.094Z,52631.15
2023-01-10T18:17:12.653Z,52639.99
2023-01-10T18:19:44.072Z,52640.39
2023-01-10T18:22:33.709Z,52631.96
2023-01-10T18:25:06.179Z,52629.54
2023-01-10T18:27:37.776Z,52642.81
2023-01-10T18:30:11.727Z,52631.55
2023-01-10T18:32:43.393Z,52654.06
2023-01-10T18:35:15.419Z,52652.86
2023-01-10T18:37:47.589Z,52634.77
2023-01-10T18:40:20.655Z,52637.18
2023-01-10T18:42:54.835Z,52649.24
2023-01-10T18:45:28.412Z,52632.76
2023-01-10T18:48:02.023Z,52646.43
2023-01-10T18:50:33.542Z,52656.07
2023-01-10T18:53:05.224Z,52650.45
2023-01-10T18:55:36.921Z,52631.55
2023-01-10T18:58:09.624Z,52637.18
2023-01-10T19:00:41.215Z,52656.48
2023-01-10T19:03:12.756Z,52648.44
2023-01-10T19:05:45.178Z,52650.04
2023-01-10T19:08:16.832Z,52640.79
2023-01-10T19:11:11.912Z,52652.05
2023-01-10T19:13:40.079Z,52651.25
2023-01-10T19:16:16.070Z,52635.57
2023-01-10T19:18:49.478Z,52650.04
2023-01-10T19:21:21.234Z,52646.02
2023-01-10T19:23:55.255Z,52653.66
2023-01-10T19:26:27.151Z,52653.26
2023-01-10T19:28:58.703Z,52656.88
2023-01-10T19:31:30.915Z,52636.38
2023-01-10T19:34:02.775Z,52633.96
2023-01-10T19:36:34.968Z,52659.29
2023-01-10T19:39:07.365Z,52658.08
2023-01-10T19:41:39.395Z,52661.70
2023-01-10T19:44:13.236Z,52678.98
2023-01-10T19:46:47.774Z,52642.80
2023-01-10T19:49:20.211Z,52653.26
2023-01-10T19:51:53.907Z,52639.20
2023-01-10T19:54:25.927Z,52652.86
2023-01-10T19:56:57.520Z,52662.50
2023-01-10T19:59:31.700Z,52648.03
2023-01-10T20:02:03.272Z,52651.25
2023-01-10T20:04:34.736Z,52676.97
2023-01-10T20:07:06.361Z,52659.69
2023-01-10T20:09:38.174Z,52662.10
2023-01-10T20:12:09.788Z,52650.04
2023-01-10T20:14:41.437Z,52656.48
2023-01-10T20:17:13.826Z,52650.45
2023-01-10T20:19:48.109Z,52654.46
2023-01-10T20:22:19.869Z,52676.16
2023-01-10T20:24:52.343Z,52660.09
2023-01-10T20:27:23.886Z,52661.29
2023-01-10T20:29:55.467Z,52640.39
2023-01-10T20:32:26.812Z,52653.66
2023-01-10T20:34:58.363Z,52648.44
2023-01-10T20:37:29.825Z,52652.45
2023-01-10T20:40:01.764Z,52666.12
2023-01-10T20:42:33.868Z,52643.21
2023-01-10T20:45:05.363Z,52649.24
2023-01-10T20:47:37.123Z,52649.64
2023-01-10T20:50:10.858Z,52658.08
2023-01-10T20:52:42.286Z,52669.34
2023-01-10T20:55:16.078Z,52648.44
2023-01-10T20:57:47.736Z,52674.96
2023-01-10T21:00:21.500Z,52661.70
2023-01-10T21:02:53.044Z,52658.89
2023-01-10T21:05:24.824Z,52637.18
2023-01-10T21:07:56.436Z,52678.57
2023-01-10T21:10:28.267Z,52645.63
2023-01-10T21:12:59.970Z,52670.14
2023-01-10T21:15:31.533Z,52671.74
2023-01-10T21:18:02.980Z,52651.65
2023-01-10T21:20:34.674Z,52656.48
2023-01-10T21:23:06.510Z,52664.91
2023-01-10T21:25:38.539Z,52660.89
2023-01-10T21:28:10.361Z,52662.10
2023-01-10T21:30:42.066Z,52670.14
2023-01-10T21:33:13.720Z,52670.54
2023-01-10T21:35:45.630Z,52681.79
2023-01-10T21:38:17.223Z,52656.07
2023-01-10T21:40:49.069Z,52675.36
2023-01-10T21:43:20.656Z,52654.86
2023-01-10T21:45:52.279Z,52667.73
2023-01-10T21:48:24.533Z,52678.18
2023-01-10T21:50:58.100Z,52657.68
2023-01-10T21:53:29.737Z,52680.19
2023-01-10T21:56:02.240Z,52680.99
2023-01-10T21:58:33.899Z,52654.46
2023-01-10T22:01:06.275Z,52664.91
2023-01-10T22:03:38.186Z,52668.93
2023-01-10T22:06:10.494Z,52668.13
2023-01-10T22:08:42.010Z,52671.34
2023-01-10T22:11:13.741Z,52666.93
2023-01-10T22:13:45.481Z,52665.72
2023-01-10T22:16:17.034Z,52664.91
2023-01-10T22:18:49.242Z,52684.61
2023-01-10T22:21:21.881Z,52671.74
2023-01-10T22:23:53.831Z,52657.68
2023-01-10T22:26:25.482Z,52674.96
2023-01-10T22:28:57.406Z,52673.76
2023-01-10T22:31:29.331Z,52670.14
2023-01-10T22:34:00.980Z,52674.55
2023-01-10T22:36:32.648Z,52663.71
2023-01-10T22:39:04.629Z,52669.74
2023-01-10T22:41:36.075Z,52682.60
2023-01-10T22:44:08.060Z,52668.53
2023-01-10T22:46:39.612Z,52664.92
2023-01-10T22:49:11.363Z,52676.16
2023-01-10T22:51:43.156Z,52673.35
2023-01-10T22:54:16.023Z,52648.43
2023-01-10T22:56:47.687Z,52664.11
2023-01-10T23:04:57.730Z,52704.30
2023-01-10T23:07:29.555Z,52679.79
2023-01-10T23:10:01.215Z,52672.95
2023-01-10T23:12:32.971Z,52669.34
2023-01-10T23:15:04.919Z,52682.20
2023-01-10T23:17:36.498Z,52677.38
2023-01-10T23:20:10.194Z,52676.97
2023-01-10T23:22:41.580Z,52678.18
2023-01-10T23:25:13.116Z,52671.74
2023-01-10T23:27:44.632Z,52674.16
2023-01-10T23:30:17.295Z,52657.68
2023-01-10T23:32:49.786Z,52675.36
2023-01-10T23:35:21.424Z,52675.77
2023-01-10T23:37:54.359Z,52687.42
2023-01-10T23:40:26.056Z,52669.33
2023-01-10T23:42:57.596Z,52680.99
2023-01-10T23:45:28.968Z,52684.61
2023-01-10T23:48:00.636Z,52691.03
2023-01-10T23:50:32.218Z,52683.40
2023-01-10T23:53:03.939Z,52674.16
2023-01-10T23:55:35.607Z,52676.57
2023-01-10T23:58:07.232Z,52675.76
